Etusivu
METAR-TAF:

METAR-TAF

Lentoasemat :

Quentin Aanenson Field

Luverne, Minnesota, Yhdysvallat

Leveyspiiri: 43-37-16N, Pituuspiiri: 096-12-58W, korkeus merenpinnasta: 436 m

Tämänhetkinen sää

Tämä raportti tehtiin 23 minuuttia sitten, kello 10.15 UTC
Tuuli 7 kn etelästä
Lämpötila 21°C
Kosteus 94%
Ilmanpaine 1014 hPa
Näkyvyys: 16.1 km
Hajonneita pilviä 5000 ft:n korkeudessa

METAR: KLYV 141015Z AUTO 19007KT 10SM BKN050 21/20 A2993 RMK AO2

Aika: 05:38 (10:38 UTC)


TAF: puuttuu

Säähavainnot ja -ennusteet yli 4000 lentoasemalta (METAR- ja TAF-raportit).

Käytössä olevat sääasemat on merkitty karttaan keltaisilla ja punaisilla pisteillä.

Aseta hiiri pisteen päälle nähdäksesi sääaseman nimen.

Klikkaa sitten nähdäksesi säähavainnot ja -ennusteet.

Kartan vaihtaminen: klikkaa mustalla rastilla varustettuja vihreitä pisteitä, niin voit zoomata sisään; viivalla varustettua vihreää pistettä, niin voit zoomata ulos tai vihreitä nuolia, niin pääset viereisille kartoille.


METAR-TAF: